^^
Meteo Knjazevac Station Historical Data
Daily Summary for November 10, 2021 Units:  Metric    English   Both
Daily Weekly Monthly Yearly Custom
  High: Low: Average:
Temperature: 4.8 °C 1.2 °C 2.8 °C
Dew Point: 4.7 °C 1 °C 2.6 °C
Humidity: 99% 98% 99%
Wind Speed: 4.8km/h 0km/h 1.6km/h
Wind Gust: 9.7km/h - -
Wind- - West
Pressure: 1036.1 hPa 1035.1 hPa -
Precipitation: 0 mm    
Historical Graphs
 
 
Tabular Data for November 10, 2021
Time Temperature Dew Point Pressure Wind Wind Speed Wind Gust Humidity Rainfall Rate (Hourly) solar Conditions
00:00 4.5 °C 4.2 °C 1035.1 hPa WSW 3.2 km/h 6.4 km/h 98% 0 mm 0 W/m2
00:10 4.3 °C 4.2 °C 1035.1 hPa West 1.6 km/h 3.2 km/h 99% 0 mm 0 W/m2
00:20 4.1 °C 3.9 °C 1035.1 hPa NNW 1.6 km/h 3.2 km/h 99% 0 mm 0 W/m2
00:30 3.9 °C 3.8 °C 1035.1 hPa Calm   4.8 km/h 99% 0 mm 0 W/m2
00:40 3.6 °C 3.4 °C 1035.1 hPa South 1.6 km/h 3.2 km/h 99% 0 mm 0 W/m2
00:50 3.4 °C 3.3 °C 1035.4 hPa West 1.6 km/h 3.2 km/h 99% 0 mm 0 W/m2
01:00 3.2 °C 3.1 °C 1035.4 hPa NW 3.2 km/h 4.8 km/h 99% 0 mm 0 W/m2
01:10 3.1 °C 2.9 °C 1035.4 hPa Calm   4.8 km/h 99% 0 mm 0 W/m2
01:20 2.8 °C 2.7 °C 1035.4 hPa Calm   3.2 km/h 99% 0 mm 0 W/m2
01:30 2.6 °C 2.4 °C 1035.1 hPa NW 1.6 km/h 3.2 km/h 99% 0 mm 0 W/m2
01:40 2.3 °C 2 °C 1035.1 hPa Calm   3.2 km/h 98% 0 mm 0 W/m2
01:50 2.1 °C 1.9 °C 1035.1 hPa WNW 3.2 km/h 6.4 km/h 99% 0 mm 0 W/m2
02:00 1.8 °C 1.7 °C 1035.1 hPa Calm   3.2 km/h 99% 0 mm 0 W/m2
02:10 1.6 °C 1.4 °C 1035.1 hPa Calm   3.2 km/h 99% 0 mm 0 W/m2
02:20 1.4 °C 1.3 °C 1035.1 hPa NNW 1.6 km/h 3.2 km/h 99% 0 mm 0 W/m2
02:30 1.3 °C 1.2 °C 1035.1 hPa NNE 4.8 km/h 8 km/h 99% 0 mm 0 W/m2
02:40 1.2 °C 1.1 °C 1035.1 hPa WNW 1.6 km/h 3.2 km/h 99% 0 mm 0 W/m2
02:50 1.2 °C 1 °C 1035.1 hPa Calm   3.2 km/h 99% 0 mm 0 W/m2
03:00 1.3 °C 1.2 °C 1035.1 hPa NNW 1.6 km/h 4.8 km/h 99% 0 mm 0 W/m2
03:10 1.3 °C 1.2 °C 1035.1 hPa West 3.2 km/h 3.2 km/h 99% 0 mm 0 W/m2
03:20 1.3 °C 1.2 °C 1035.1 hPa Calm   4.8 km/h 99% 0 mm 0 W/m2
03:30 1.3 °C 1.2 °C 1035.1 hPa West 4.8 km/h 8 km/h 99% 0 mm 0 W/m2
03:40 1.3 °C 1.2 °C 1035.1 hPa WNW 4.8 km/h 8 km/h 99% 0 mm 0 W/m2
03:50 1.5 °C 1.3 °C 1035.4 hPa West 3.2 km/h 8 km/h 99% 0 mm 0 W/m2
04:00 1.7 °C 1.5 °C 1035.4 hPa NW 1.6 km/h 8 km/h 99% 0 mm 0 W/m2
04:10 1.8 °C 1.7 °C 1035.4 hPa NNW 1.6 km/h 3.2 km/h 99% 0 mm 0 W/m2
04:20 1.9 °C 1.8 °C 1035.4 hPa Calm   3.2 km/h 99% 0 mm 0 W/m2
04:30 1.9 °C 1.8 °C 1035.4 hPa Calm   3.2 km/h 99% 0 mm 0 W/m2
04:40 1.9 °C 1.8 °C 1035.4 hPa NW 1.6 km/h 3.2 km/h 99% 0 mm 0 W/m2
04:50 2 °C 1.8 °C 1035.4 hPa NW 1.6 km/h 3.2 km/h 99% 0 mm 0 W/m2
05:00 2.1 °C 1.9 °C 1035.4 hPa Calm   3.2 km/h 99% 0 mm 0 W/m2
05:10 2.2 °C 2.1 °C 1035.4 hPa Calm   1.6 km/h 99% 0 mm 0 W/m2
05:20 2.3 °C 2.2 °C 1035.4 hPa WNW 1.6 km/h 3.2 km/h 99% 0 mm 0 W/m2
05:30 2.4 °C 2.3 °C 1035.4 hPa NW 1.6 km/h 4.8 km/h 99% 0 mm 0 W/m2
05:40 2.6 °C 2.4 °C 1035.4 hPa WNW 3.2 km/h 4.8 km/h 99% 0 mm 0 W/m2
05:50 2.7 °C 2.6 °C 1035.4 hPa NW 1.6 km/h 4.8 km/h 99% 0 mm 0 W/m2
06:00 2.8 °C 2.7 °C 1035.4 hPa Calm   3.2 km/h 99% 0 mm 0 W/m2
06:10 2.9 °C 2.8 °C 1035.4 hPa Calm   3.2 km/h 99% 0 mm 0 W/m2
06:20 2.9 °C 2.8 °C 1035.4 hPa Calm   3.2 km/h 99% 0 mm 1 W/m2
06:30 2.9 °C 2.8 °C 1035.4 hPa NW 1.6 km/h 3.2 km/h 99% 0 mm 4 W/m2
06:40 3 °C 2.8 °C 1035.4 hPa NW 1.6 km/h 3.2 km/h 99% 0 mm 8 W/m2
06:50 3.1 °C 2.9 °C 1035.8 hPa NW 1.6 km/h 4.8 km/h 99% 0 mm 13 W/m2
07:00 3.1 °C 2.9 °C 1035.8 hPa West 1.6 km/h 6.4 km/h 99% 0 mm 17 W/m2
07:10 3.1 °C 2.9 °C 1035.8 hPa NW 1.6 km/h 8 km/h 99% 0 mm 19 W/m2
07:20 3.2 °C 3 °C 1035.8 hPa West 1.6 km/h 3.2 km/h 99% 0 mm 25 W/m2
07:30 3.2 °C 3.1 °C 1035.8 hPa Calm   6.4 km/h 99% 0 mm 23 W/m2
07:40 3.3 °C 3.2 °C 1036.1 hPa Calm   3.2 km/h 99% 0 mm 26 W/m2
07:50 3.4 °C 3.3 °C 1036.1 hPa NNW 1.6 km/h 4.8 km/h 99% 0 mm 25 W/m2
08:00 3.5 °C 3.3 °C 1036.1 hPa Calm   3.2 km/h 99% 0 mm 39 W/m2
08:10 3.6 °C 3.4 °C 1035.8 hPa West 1.6 km/h 6.4 km/h 99% 0 mm 42 W/m2
08:20 3.6 °C 3.4 °C 1035.8 hPa WSW 3.2 km/h 4.8 km/h 99% 0 mm 45 W/m2
08:30 3.7 °C 3.6 °C 1035.8 hPa WSW 1.6 km/h 3.2 km/h 99% 0 mm 61 W/m2
08:40 3.8 °C 3.7 °C 1035.8 hPa WSW 3.2 km/h 4.8 km/h 99% 0 mm 57 W/m2
08:50 3.9 °C 3.8 °C 1035.8 hPa SW 3.2 km/h 4.8 km/h 99% 0 mm 64 W/m2
09:00 3.9 °C 3.8 °C 1035.8 hPa SW 1.6 km/h 4.8 km/h 99% 0 mm 79 W/m2
09:10 4.1 °C 3.9 °C 1035.8 hPa SW 3.2 km/h 6.4 km/h 99% 0 mm 77 W/m2
09:20 4.2 °C 4.1 °C 1035.8 hPa WSW 3.2 km/h 4.8 km/h 99% 0 mm 94 W/m2
09:30 4.3 °C 4.2 °C 1035.8 hPa SW 4.8 km/h 9.7 km/h 99% 0 mm 119 W/m2
09:40 4.6 °C 4.4 °C 1035.4 hPa WSW 1.6 km/h 8 km/h 99% 0 mm 194 W/m2
09:50 4.8 °C 4.7 °C 1035.8 hPa Calm   4.8 km/h 99% 0 mm 195 W/m2
Knjazevac, Serbia
Compliments of Weather Underground - 2 mb